Strona główna
METAR-TAF:

METAR-TAF

Lotnisko :

Brookhaven Airport

Shirley, Nowy Jork, Stany Zjednoczone

Szerokość geograficzna: 40-49-18N, Długość geograficzna: 072-52-08W, wysokość: 25 m

Aktualna obserwacja pogody

Raport powstał 1 godzina i 3 minut temu, godzina 01:56 UTC
Wiatr 4 kt od południowo-południowy wschód
Temperatura 8°C
Wilgotność 87%
Ciśnienie 1016 hPa
Widzialność: 16.1 km
bezchmurnie

METAR: KHWV 060156Z AUTO 16004KT 10SM CLR 08/06 A3001 RMK AO2 SLP161 T00830056 TSNO

czas: 22:59 (02:59 UTC)


TAF: brakujący

Obserwacja i prognoza pogody dla ponad 4000 lotnisk (raport METAR i TAF).

Dostępne stacje oznaczono żółtymi i czerwonymi punktami na mapie.

Najedź kursorem aby zobaczyć nazwę stacji.

Kliknij aby zobaczyć obserwacje i prognozy pogody.

Aby zmienić mapę: kliknij na zielony przycisk z czarnym krzyżykiem, aby powiększyć; na zielony przycisk z myślnikiem, aby pomniejszyć; na zielone strzałki, aby przejść do map sąsiednich.


METAR-TAF: